Time;durP1;ratioP1;P1;durP2;ratioP2;P2;SDS_P1;SDS_P2;PMS_P1;PMS_P2;Temp;Humidity;BMP_temperature;BMP_pressure;BME280_temperature;BME280_humidity;BME280_pressure;Samples;Min_cycle;Max_cycle;Signal;HPM_P1;HPM_P2
2021/07/12 00:01:16;;;;;;;13.30;10.15;;;;;;;17.54;100.00;101448.69;4962357;28;20508;-80
2021/07/12 00:03:41;;;;;;;13.02;10.27;;;;;;;17.56;100.00;101444.03;4954986;28;20030;-81
2021/07/12 00:06:07;;;;;;;14.02;9.20;;;;;;;17.53;100.00;101449.69;5005551;28;20428;-80
2021/07/12 00:08:32;;;;;;;10.60;9.57;;;;;;;17.45;100.00;101447.91;4969036;28;20049;-80
2021/07/12 00:10:58;;;;;;;11.18;9.25;;;;;;;17.44;100.00;101451.56;4972760;28;20129;-81
2021/07/12 00:13:23;;;;;;;12.73;9.13;;;;;;;17.40;100.00;101449.44;4955418;28;20031;-79
2021/07/12 00:15:49;;;;;;;10.52;9.43;;;;;;;17.43;100.00;101443.78;4957432;28;20049;-79
2021/07/12 00:18:14;;;;;;;10.48;9.38;;;;;;;17.37;100.00;101455.09;4961100;28;20068;-80
2021/07/12 00:20:40;;;;;;;14.23;9.98;;;;;;;17.29;100.00;101446.19;4998756;28;20053;-78
2021/07/12 00:23:06;;;;;;;11.15;9.45;;;;;;;17.28;100.00;101439.22;4973318;28;20040;-77
2021/07/12 00:25:32;;;;;;;11.73;9.18;;;;;;;17.29;100.00;101446.19;4980415;28;20107;-78
2021/07/12 00:27:58;;;;;;;10.82;9.70;;;;;;;17.27;100.00;101444.69;4982644;28;20043;-82
2021/07/12 00:30:24;;;;;;;11.65;9.55;;;;;;;17.20;100.00;101447.22;4972226;28;20034;-78
2021/07/12 00:32:53;;;;;;;13.93;9.73;;;;;;;17.19;100.00;101439.44;4978772;28;20533;-79
2021/07/12 00:35:19;;;;;;;12.10;9.80;;;;;;;17.17;100.00;101436.94;4962223;28;20054;-80
2021/07/12 00:37:45;;;;;;;11.35;9.25;;;;;;;17.17;100.00;101434.31;4948981;28;20523;-80
2021/07/12 00:40:14;;;;;;;13.10;9.50;;;;;;;17.16;100.00;101442.44;4958882;28;20061;-79
2021/07/12 00:42:42;;;;;;;10.10;9.02;;;;;;;17.12;100.00;101442.78;4957486;28;20038;-80
2021/07/12 00:45:15;;;;;;;9.82;8.82;;;;;;;17.05;100.00;101441.00;4973995;28;20030;-79
2021/07/12 00:47:47;;;;;;;13.45;9.15;;;;;;;16.97;100.00;101433.06;4981229;28;20487;-79
2021/07/12 00:50:14;;;;;;;12.65;9.15;;;;;;;16.91;100.00;101437.22;4973717;28;20038;-80
2021/07/12 00:52:40;;;;;;;11.23;10.02;;;;;;;16.87;100.00;101438.56;4986560;28;20552;-80
2021/07/12 00:55:17;;;;;;;11.68;10.48;;;;;;;16.81;100.00;101440.06;4947657;28;20038;-81
2021/07/12 00:57:43;;;;;;;12.80;10.10;;;;;;;16.75;100.00;101443.38;4988009;28;20492;-81
2021/07/12 01:00:11;;;;;;;11.52;10.13;;;;;;;16.74;100.00;101439.06;4956569;28;20101;-81
2021/07/12 01:02:37;;;;;;;11.57;10.35;;;;;;;16.65;100.00;101448.88;4975068;28;20485;-79
2021/07/12 01:05:05;;;;;;;10.63;9.52;;;;;;;16.57;100.00;101451.53;4959862;28;20060;-79
2021/07/12 01:07:31;;;;;;;12.55;9.40;;;;;;;16.48;100.00;101450.75;4963842;28;20030;-80
2021/07/12 01:09:57;;;;;;;13.88;9.50;;;;;;;16.47;100.00;101450.91;5024023;28;20063;-80
2021/07/12 01:12:39;;;;;;;13.85;9.10;;;;;;;16.45;100.00;101453.72;4982424;28;20389;-81
2021/07/12 01:15:10;;;;;;;16.35;9.57;;;;;;;16.43;100.00;101454.88;4953121;28;20046;-80
2021/07/12 01:18:22;;;;;;;21.58;10.60;;;;;;;16.39;100.00;101459.69;4984314;28;20046;-81
2021/07/12 01:21:18;;;;;;;11.38;9.43;;;;;;;16.30;100.00;101452.75;4990322;28;20038;-82
2021/07/12 01:24:23;;;;;;;18.23;9.82;;;;;;;16.13;100.00;101446.63;4986023;28;20043;-79
2021/07/12 01:27:10;;;;;;;12.10;10.50;;;;;;;16.11;100.00;101445.97;4956868;28;20480;-81
2021/07/12 01:30:02;;;;;;;17.23;9.98;;;;;;;16.05;100.00;101441.31;4987828;28;20042;-82
2021/07/12 01:32:56;;;;;;;17.20;10.82;;;;;;;16.08;100.00;101459.53;4973864;28;20595;-80
2021/07/12 01:35:23;;;;;;;13.38;11.43;;;;;;;16.13;100.00;101442.16;4971793;28;20413;-83
2021/07/12 01:38:15;;;;;;;13.85;11.00;;;;;;;16.09;100.00;101432.06;4947226;28;20038;-79
2021/07/12 01:41:04;;;;;;;15.48;11.15;;;;;;;15.96;100.00;101422.81;4980647;28;20046;-81
2021/07/12 01:43:41;;;;;;;12.57;10.68;;;;;;;15.95;100.00;101421.16;4957386;28;20038;-81
2021/07/12 01:46:11;;;;;;;13.73;10.45;;;;;;;15.99;100.00;101420.81;4973825;28;20034;-79
2021/07/12 01:48:49;;;;;;;17.50;12.07;;;;;;;16.14;100.00;101438.53;4956732;28;20718;-81
2021/07/12 01:51:21;;;;;;;15.40;11.23;;;;;;;16.11;100.00;101425.63;4955160;28;20057;-80
2021/07/12 01:54:08;;;;;;;13.55;11.52;;;;;;;16.11;100.00;101427.44;4983455;28;20038;-80
2021/07/12 01:56:43;;;;;;;11.57;10.48;;;;;;;16.00;100.00;101423.31;4972250;28;20152;-80
2021/07/12 01:59:26;;;;;;;13.73;10.98;;;;;;;16.02;100.00;101428.44;4967719;28;20678;-80
2021/07/12 02:01:54;;;;;;;15.02;10.90;;;;;;;15.98;100.00;101416.53;4981406;28;20481;-81
2021/07/12 02:04:26;;;;;;;14.65;11.27;;;;;;;15.98;100.00;101417.34;4964119;28;20042;-80
2021/07/12 02:06:56;;;;;;;12.90;10.95;;;;;;;15.88;100.00;101409.59;4966980;28;20529;-81
2021/07/12 02:09:23;;;;;;;13.25;10.45;;;;;;;15.80;100.00;101414.03;4964304;28;20040;-79
2021/07/12 02:11:57;;;;;;;14.82;10.75;;;;;;;15.80;100.00;101408.75;4957867;28;20484;-79
2021/07/12 02:14:24;;;;;;;17.48;11.32;;;;;;;15.86;100.00;101403.63;4958051;28;20077;-80
2021/07/12 02:16:53;;;;;;;12.30;10.48;;;;;;;15.79;100.00;101397.34;4983222;28;20113;-80
2021/07/12 02:19:20;;;;;;;12.45;10.68;;;;;;;15.70;100.00;101395.66;4982853;28;20078;-80
2021/07/12 02:21:56;;;;;;;13.25;10.63;;;;;;;15.69;100.00;101400.13;4975992;28;20493;-81
2021/07/12 02:24:46;;;;;;;14.00;11.98;;;;;;;15.73;100.00;101403.28;4948270;28;20042;-79
2021/07/12 02:27:19;;;;;;;14.27;10.57;;;;;;;15.68;100.00;101395.00;4971182;28;20038;-78
2021/07/12 02:29:46;;;;;;;14.02;11.15;;;;;;;15.67;100.00;101396.81;4964306;28;20049;-81
2021/07/12 02:32:12;;;;;;;15.45;10.90;;;;;;;15.67;100.00;101393.31;4975876;28;20916;-80
2021/07/12 02:34:44;;;;;;;;;;;;;;;15.67;100.00;101390.69;4975289;28;20049;-79
2021/07/12 02:37:13;;;;;;;12.95;11.35;;;;;;;15.66;100.00;101391.69;4974066;28;19918;-80
2021/07/12 02:39:40;;;;;;;16.70;11.00;;;;;;;15.57;100.00;101386.38;4958236;28;20133;-81
2021/07/12 02:42:09;;;;;;;12.05;10.30;;;;;;;15.61;100.00;101386.88;4970265;28;20401;-81
2021/07/12 02:44:38;;;;;;;16.55;11.85;;;;;;;15.57;100.00;101394.31;5001669;28;20050;-79
2021/07/12 02:47:07;;;;;;;13.90;11.93;;;;;;;15.52;100.00;101387.84;4954247;28;20117;-79
2021/07/12 02:49:36;;;;;;;13.43;11.60;;;;;;;15.48;100.00;101384.75;4971221;28;21799;-79
2021/07/12 02:52:25;;;;;;;17.25;11.20;;;;;;;15.46;100.00;101388.50;4956152;28;20085;-79
2021/07/12 02:54:59;;;;;;;12.75;11.43;;;;;;;15.42;100.00;101376.63;4961926;28;20042;-79
2021/07/12 02:57:26;;;;;;;16.60;10.68;;;;;;;15.36;100.00;101380.72;4983472;28;20061;-80
2021/07/12 02:59:54;;;;;;;14.82;9.57;;;;;;;15.35;100.00;101374.63;4971440;28;20133;-79
2021/07/12 03:02:21;;;;;;;12.70;10.25;;;;;;;15.32;100.00;101380.22;4957937;28;20062;-79
2021/07/12 03:04:47;;;;;;;17.20;10.27;;;;;;;15.31;100.00;101381.22;4980900;28;20081;-80
2021/07/12 03:07:28;;;;;;;15.35;10.48;;;;;;;15.28;100.00;101375.44;4976641;28;20042;-80
2021/07/12 03:09:59;;;;;;;15.55;10.52;;;;;;;15.28;100.00;101370.16;4966621;28;20042;-79
2021/07/12 03:12:34;;;;;;;17.17;11.02;;;;;;;15.31;100.00;101370.66;4979000;28;20070;-80
2021/07/12 03:15:26;;;;;;;15.32;10.82;;;;;;;15.30;100.00;101370.81;4971642;28;20519;-80
2021/07/12 03:17:54;;;;;;;11.63;10.00;;;;;;;15.30;100.00;101378.75;4966831;28;20456;-79
2021/07/12 03:20:20;;;;;;;13.82;11.10;;;;;;;15.29;100.00;101369.16;4973653;28;20121;-80
2021/07/12 03:22:50;;;;;;;17.45;11.40;;;;;;;15.31;100.00;101373.31;4973763;28;20034;-81
2021/07/12 03:25:22;;;;;;;14.38;10.80;;;;;;;15.29;100.00;101375.25;4957849;28;20022;-80
2021/07/12 03:27:52;;;;;;;14.57;10.75;;;;;;;15.25;100.00;101363.38;4966999;28;20037;-80
2021/07/12 03:30:17;;;;;;;13.55;11.55;;;;;;;15.32;100.00;101372.31;4993262;28;20703;-80
2021/07/12 03:32:46;;;;;;;14.82;11.13;;;;;;;15.32;100.00;101368.84;4973492;28;20070;-82
2021/07/12 03:35:17;;;;;;;14.80;10.52;;;;;;;15.29;100.00;101351.47;4956589;28;20517;-81
2021/07/12 03:37:43;;;;;;;20.90;11.25;;;;;;;15.30;100.00;101353.13;4961980;28;20501;-78
2021/07/12 03:40:09;;;;;;;14.60;10.90;;;;;;;15.36;100.00;101360.41;4973552;28;20038;-80
2021/07/12 03:42:37;;;;;;;20.70;11.07;;;;;;;15.36;100.00;101368.34;4954185;28;20027;-81
2021/07/12 03:45:07;;;;;;;18.30;11.20;;;;;;;15.37;100.00;101362.06;4969952;28;20497;-78
2021/07/12 03:47:36;;;;;;;13.25;10.88;;;;;;;15.41;100.00;101357.28;4966742;28;20045;-79
2021/07/12 03:50:11;;;;;;;16.73;11.45;;;;;;;15.44;100.00;101361.41;4980163;28;20382;-78
2021/07/12 03:52:50;;;;;;;15.00;11.60;;;;;;;15.50;100.00;101361.59;4976147;28;20041;-79
2021/07/12 03:55:24;;;;;;;12.88;11.50;;;;;;;15.54;100.00;101362.91;4979175;28;20315;-80
2021/07/12 03:57:50;;;;;;;13.05;10.70;;;;;;;15.55;100.00;101356.63;4984118;28;20585;-80
2021/07/12 04:00:18;;;;;;;13.23;10.40;;;;;;;15.54;100.00;101354.19;4948097;28;20034;-80
2021/07/12 04:02:45;;;;;;;15.27;11.57;;;;;;;15.60;100.00;101353.50;4963302;28;20038;-80
2021/07/12 04:05:11;;;;;;;13.48;11.68;;;;;;;15.65;100.00;101359.13;4957689;28;20026;-79
2021/07/12 04:07:38;;;;;;;14.95;10.77;;;;;;;15.68;100.00;101355.31;4983759;28;20048;-78
2021/07/12 04:10:05;;;;;;;18.42;12.13;;;;;;;15.75;100.00;101357.19;4979097;28;20044;-81
2021/07/12 04:12:31;;;;;;;14.25;11.10;;;;;;;15.79;100.00;101352.38;4962986;28;20064;-82
2021/07/12 04:14:58;;;;;;;14.80;10.80;;;;;;;15.86;100.00;101348.09;4978458;28;20042;-80
2021/07/12 04:17:23;;;;;;;14.82;11.63;;;;;;;15.88;100.00;101339.97;4963296;28;20488;-81
2021/07/12 04:19:51;;;;;;;11.07;10.00;;;;;;;16.00;100.00;101341.28;4962993;28;20038;-80
2021/07/12 04:22:17;;;;;;;19.52;10.20;;;;;;;16.03;100.00;101340.97;4962743;28;20033;-79
2021/07/12 04:24:42;;;;;;;11.93;10.70;;;;;;;16.11;100.00;101342.75;4978651;28;20629;-80
2021/07/12 04:27:08;;;;;;;12.07;10.43;;;;;;;16.15;100.00;101347.53;4971149;28;20034;-80
2021/07/12 04:29:33;;;;;;;14.35;10.90;;;;;;;16.23;100.00;101351.16;4985580;28;20030;-79
2021/07/12 04:32:00;;;;;;;14.45;10.50;;;;;;;16.30;100.00;101349.50;4995433;28;20034;-81
2021/07/12 04:34:27;;;;;;;13.25;10.05;;;;;;;16.37;100.00;101345.19;4995467;28;20038;-79
2021/07/12 04:36:53;;;;;;;12.77;9.77;;;;;;;16.43;100.00;101344.50;5010079;28;20113;-79
2021/07/12 04:39:18;;;;;;;11.43;10.13;;;;;;;16.43;100.00;101341.03;4978829;28;20093;-80
2021/07/12 04:41:44;;;;;;;13.55;9.60;;;;;;;16.49;100.00;101343.81;4959332;28;20034;-80
2021/07/12 04:44:09;;;;;;;12.57;10.68;;;;;;;16.58;100.00;101351.75;4985117;28;20027;-80
2021/07/12 04:46:35;;;;;;;15.63;9.85;;;;;;;16.62;100.00;101347.75;4980511;28;20122;-81
2021/07/12 04:49:01;;;;;;;11.82;10.10;;;;;;;16.74;100.00;101349.00;4980217;28;20041;-78
2021/07/12 04:51:26;;;;;;;14.40;9.18;;;;;;;16.79;100.00;101348.50;4992852;28;20061;-79
2021/07/12 04:53:52;;;;;;;12.68;10.70;;;;;;;16.81;100.00;101341.22;4957742;28;20134;-80
2021/07/12 04:56:18;;;;;;;12.25;9.82;;;;;;;16.85;100.00;101343.34;4978865;28;20034;-81
2021/07/12 04:58:46;;;;;;;11.63;9.45;;;;;;;16.96;100.00;101344.81;4967169;28;20044;-80
2021/07/12 05:01:12;;;;;;;12.38;9.23;;;;;;;17.02;100.00;101346.75;4975800;28;20129;-80
2021/07/12 05:03:38;;;;;;;10.65;8.88;;;;;;;17.11;100.00;101345.69;4985109;28;20425;-80
2021/07/12 05:06:04;;;;;;;11.30;9.05;;;;;;;17.21;100.00;101337.53;4972676;28;20041;-81
2021/07/12 05:08:30;;;;;;;11.25;8.70;;;;;;;17.18;100.00;101326.44;4969242;28;20097;-81
2021/07/12 05:10:56;;;;;;;10.23;8.70;;;;;;;17.41;99.98;101350.34;4979844;28;20474;-79
2021/07/12 05:13:22;;;;;;;12.30;8.55;;;;;;;17.54;98.72;101350.56;4965691;28;20054;-80
2021/07/12 05:15:47;;;;;;;8.50;7.50;;;;;;;17.63;98.73;101351.31;4976776;28;20081;-80
2021/07/12 05:18:13;;;;;;;10.02;7.75;;;;;;;17.64;98.95;101350.31;4976633;28;20412;-81
2021/07/12 05:20:39;;;;;;;10.13;7.40;;;;;;;17.73;99.34;101343.94;4958155;28;20072;-81
2021/07/12 05:23:04;;;;;;;13.68;7.90;;;;;;;17.86;98.36;101343.38;4995383;28;20042;-82
2021/07/12 05:25:30;;;;;;;10.15;8.35;;;;;;;17.98;98.27;101346.41;4972958;28;20062;-81
2021/07/12 05:27:55;;;;;;;10.85;8.07;;;;;;;18.16;95.97;101343.38;4988346;28;20041;-81
2021/07/12 05:30:21;;;;;;;9.38;8.38;;;;;;;18.32;94.20;101339.75;4971283;28;20042;-81
2021/07/12 05:32:47;;;;;;;8.63;7.43;;;;;;;18.38;94.48;101331.03;4959509;28;20041;-79
2021/07/12 05:35:13;;;;;;;9.30;7.63;;;;;;;18.60;94.13;101337.25;4973423;28;20054;-82
2021/07/12 05:37:39;;;;;;;11.60;7.82;;;;;;;18.68;92.60;101342.47;4959587;28;20100;-83
2021/07/12 05:40:06;;;;;;;8.52;7.35;;;;;;;18.72;92.16;101343.75;4975743;28;20065;-81
2021/07/12 05:42:32;;;;;;;9.50;7.85;;;;;;;18.77;92.31;101348.50;4983550;28;20030;-82
2021/07/12 05:44:57;;;;;;;11.00;7.15;;;;;;;18.85;92.16;101345.78;4959405;28;20511;-81
2021/07/12 05:47:23;;;;;;;10.13;7.47;;;;;;;18.99;91.37;101347.59;4978287;28;20034;-83
2021/07/12 05:49:48;;;;;;;12.60;7.35;;;;;;;19.16;92.20;101342.03;4975618;28;20037;-82
2021/07/12 05:52:14;;;;;;;14.25;7.95;;;;;;;19.20;92.53;101341.47;4971325;28;20039;-81
2021/07/12 05:54:39;;;;;;;12.48;7.07;;;;;;;19.30;87.89;101343.81;4940502;28;20037;-84
2021/07/12 05:57:06;;;;;;;8.50;6.82;;;;;;;19.42;87.09;101336.13;4954465;28;20053;-82
2021/07/12 05:59:31;;;;;;;12.38;6.93;;;;;;;19.50;88.84;101340.53;4946978;28;20168;-85
2021/07/12 06:01:57;;;;;;;7.28;6.57;;;;;;;19.48;86.86;101339.88;4939811;28;20125;-83
2021/07/12 06:04:23;;;;;;;11.73;6.85;;;;;;;19.65;85.77;101339.44;4951746;28;20431;-80
2021/07/12 06:06:48;;;;;;;8.20;6.88;;;;;;;19.70;86.12;101333.50;4959151;28;20034;-83
2021/07/12 06:09:14;;;;;;;8.88;7.10;;;;;;;19.81;86.97;101348.19;4973174;28;20489;-83
2021/07/12 06:11:39;;;;;;;7.97;7.07;;;;;;;19.85;84.85;101338.78;4972510;28;20034;-81
2021/07/12 06:14:05;;;;;;;8.52;6.68;;;;;;;19.91;83.61;101346.03;4959089;28;20052;-83
2021/07/12 06:16:31;;;;;;;9.95;7.15;;;;;;;19.98;82.92;101338.06;4959443;28;20058;-80
2021/07/12 06:18:56;;;;;;;8.00;7.05;;;;;;;20.00;85.63;101349.34;4957638;28;20042;-83
2021/07/12 06:21:22;;;;;;;11.23;6.95;;;;;;;20.04;83.62;101342.59;4959259;28;20089;-81
2021/07/12 06:23:47;;;;;;;13.23;7.50;;;;;;;20.02;86.87;101348.16;4974773;28;20050;-84
2021/07/12 06:26:13;;;;;;;9.57;7.28;;;;;;;20.20;83.17;101346.81;4958578;28;20547;-82
2021/07/12 06:28:38;;;;;;;7.78;6.82;;;;;;;20.34;81.70;101343.22;4952869;28;20038;-83
2021/07/12 06:31:04;;;;;;;7.40;6.70;;;;;;;20.48;81.24;101351.28;4990830;28;20049;-83
2021/07/12 06:33:29;;;;;;;9.32;7.05;;;;;;;20.55;81.12;101344.97;5007529;28;20598;-82
2021/07/12 06:35:56;;;;;;;8.48;6.90;;;;;;;20.73;79.62;101348.97;4989881;28;20169;-81
2021/07/12 06:38:22;;;;;;;7.30;6.40;;;;;;;20.82;79.63;101345.09;4955426;28;20556;-82
2021/07/12 06:40:48;;;;;;;7.47;6.78;;;;;;;20.80;79.62;101352.47;4983798;28;20034;-81
2021/07/12 06:43:14;;;;;;;9.82;6.35;;;;;;;20.83;80.77;101348.59;4968030;28;20033;-80
2021/07/12 06:45:40;;;;;;;11.52;6.32;;;;;;;20.95;79.05;101344.31;4991779;28;20027;-81
2021/07/12 06:48:07;;;;;;;9.85;6.30;;;;;;;21.08;79.67;101340.84;4970249;28;20042;-81
2021/07/12 06:50:35;;;;;;;6.95;6.25;;;;;;;21.13;80.39;101339.22;4969773;28;20101;-80
2021/07/12 06:53:01;;;;;;;7.20;6.50;;;;;;;21.26;78.65;101333.09;4983796;28;20042;-82
2021/07/12 06:55:27;;;;;;;7.40;6.70;;;;;;;21.34;77.33;101332.06;4957802;28;20034;-83
2021/07/12 06:57:54;;;;;;;14.90;6.18;;;;;;;21.50;75.71;101328.25;4974997;28;20034;-82
2021/07/12 07:00:20;;;;;;;12.05;7.05;;;;;;;21.54;76.48;101330.28;4995868;28;20560;-81
2021/07/12 07:02:59;;;;;;;7.30;6.60;;;;;;;21.72;76.80;101335.00;4975635;28;20066;-84
2021/07/12 07:05:27;;;;;;;8.00;6.57;;;;;;;21.77;75.86;101329.03;4977834;28;20643;-82
2021/07/12 07:07:53;;;;;;;7.47;6.25;;;;;;;21.80;74.35;101320.63;4958912;28;20090;-82
2021/07/12 07:10:18;;;;;;;7.40;6.40;;;;;;;21.99;78.12;101323.50;4956270;28;20042;-82
2021/07/12 07:12:44;;;;;;;7.15;6.45;;;;;;;22.11;74.92;101327.16;5006551;28;20047;-84
2021/07/12 07:15:10;;;;;;;10.35;6.32;;;;;;;22.11;73.96;101319.97;4993405;28;20034;-82
2021/07/12 07:17:35;;;;;;;8.23;6.57;;;;;;;22.18;77.85;101311.94;5004407;28;20461;-84
2021/07/12 07:20:02;;;;;;;9.48;6.15;;;;;;;22.14;75.18;101314.19;4946601;28;20112;-85
2021/07/12 07:22:28;;;;;;;6.75;6.05;;;;;;;22.22;75.40;101307.81;4978214;28;20031;-84
2021/07/12 07:24:53;;;;;;;7.20;6.30;;;;;;;22.42;74.92;101315.00;4969983;28;20034;-81
2021/07/12 07:27:19;;;;;;;9.40;5.97;;;;;;;22.62;73.15;101307.72;4990498;28;20038;-79
2021/07/12 07:29:45;;;;;;;6.28;5.68;;;;;;;22.83;73.13;101305.72;4954262;28;20038;-81
2021/07/12 07:32:10;;;;;;;6.22;5.63;;;;;;;22.97;70.92;101304.63;4977320;28;20038;-81
2021/07/12 07:34:36;;;;;;;6.75;5.93;;;;;;;23.09;71.98;101305.63;4977146;28;20038;-83
2021/07/12 07:37:02;;;;;;;6.88;5.85;;;;;;;23.15;71.29;101306.63;4959527;28;20117;-84
2021/07/12 07:39:28;;;;;;;11.73;6.57;;;;;;;23.27;70.04;101310.22;4969834;28;20030;-81
2021/07/12 07:41:53;;;;;;;9.65;5.63;;;;;;;23.33;75.16;101303.19;4976500;28;20049;-83
2021/07/12 07:44:19;;;;;;;6.82;5.97;;;;;;;23.44;69.84;101299.78;4959735;28;20046;-83
2021/07/12 07:46:45;;;;;;;7.13;6.30;;;;;;;23.58;70.29;101297.00;4986671;28;20404;-81
2021/07/12 07:49:11;;;;;;;6.28;5.50;;;;;;;23.56;71.99;101302.56;4961340;28;20031;-81
2021/07/12 07:51:41;;;;;;;8.18;5.65;;;;;;;23.69;70.27;101290.94;4959799;28;20039;-82
2021/07/12 07:54:07;;;;;;;8.38;6.00;;;;;;;23.77;69.13;101304.06;4990911;28;20039;-82
2021/07/12 07:56:33;;;;;;;7.85;5.82;;;;;;;23.77;67.90;101297.84;4994519;28;20588;-82
2021/07/12 07:58:58;;;;;;;6.88;6.15;;;;;;;23.68;69.98;101290.13;4946903;28;20065;-82
2021/07/12 08:01:24;;;;;;;7.35;5.20;;;;;;;23.73;69.73;101291.31;4982165;28;20057;-81
2021/07/12 08:03:50;;;;;;;9.57;5.78;;;;;;;23.80;67.17;101282.19;4968083;28;20408;-81
2021/07/12 08:06:17;;;;;;;7.13;5.25;;;;;;;23.94;68.00;101293.63;4973967;28;20041;-82
2021/07/12 08:08:47;;;;;;;6.03;5.13;;;;;;;24.00;67.43;101292.72;4970168;28;20048;-81
2021/07/12 08:11:12;;;;;;;9.90;5.20;;;;;;;24.19;67.70;101298.91;4961366;28;20066;-82
2021/07/12 08:13:38;;;;;;;7.15;5.40;;;;;;;24.18;67.02;101297.25;4976926;28;20065;-80
2021/07/12 08:16:04;;;;;;;6.97;5.25;;;;;;;24.35;65.92;101291.28;4993458;28;20491;-80
2021/07/12 08:18:30;;;;;;;8.27;5.30;;;;;;;24.39;64.57;101293.31;4976953;28;20037;-81
2021/07/12 08:20:56;;;;;;;6.05;4.90;;;;;;;24.38;67.27;101297.03;4960849;28;20034;-80
2021/07/12 08:23:23;;;;;;;5.65;5.15;;;;;;;24.43;66.24;101296.34;4980145;28;20061;-81
2021/07/12 08:25:50;;;;;;;8.00;5.10;;;;;;;24.46;67.01;101301.25;4993229;28;20515;-80
2021/07/12 08:28:15;;;;;;;8.05;5.50;;;;;;;24.60;63.95;101302.78;4962871;28;20121;-81
2021/07/12 08:30:41;;;;;;;6.50;5.10;;;;;;;24.68;64.45;101289.03;4956439;28;20162;-81
2021/07/12 08:33:07;;;;;;;7.15;5.65;;;;;;;24.95;63.20;101299.38;4973180;28;20077;-81
2021/07/12 08:35:33;;;;;;;6.78;5.32;;;;;;;24.94;63.88;101295.09;4960664;28;20173;-81
2021/07/12 08:37:58;;;;;;;9.00;5.50;;;;;;;24.98;63.29;101288.19;4960228;28;20038;-84
2021/07/12 08:40:24;;;;;;;5.32;4.82;;;;;;;25.01;62.67;101293.09;4976969;28;20407;-80
2021/07/12 08:42:52;;;;;;;7.72;4.57;;;;;;;25.15;64.81;101301.78;4975794;28;20476;-82
2021/07/12 08:45:18;;;;;;;5.05;4.53;;;;;;;25.32;60.95;101287.72;4975148;28;20113;-80
2021/07/12 08:47:43;;;;;;;7.82;4.55;;;;;;;25.37;59.74;101285.16;4975114;28;20213;-80
2021/07/12 08:50:09;;;;;;;5.40;4.78;;;;;;;25.50;61.93;101287.59;4956208;28;20043;-81
2021/07/12 08:52:35;;;;;;;7.95;4.35;;;;;;;25.37;60.83;101298.56;4973694;28;20035;-82
2021/07/12 08:55:02;;;;;;;4.75;4.35;;;;;;;25.66;59.37;101296.03;4971206;28;20041;-80
2021/07/12 08:57:28;;;;;;;7.55;4.05;;;;;;;25.74;59.48;101287.63;4982449;28;20094;-81
2021/07/12 08:59:56;;;;;;;6.70;4.68;;;;;;;25.78;59.87;101281.53;4975797;28;20096;-81
2021/07/12 09:02:23;;;;;;;6.80;4.82;;;;;;;25.73;58.90;101292.19;4984269;28;20118;-82
2021/07/12 09:04:52;;;;;;;5.85;4.70;;;;;;;25.81;59.74;101299.06;4991909;28;20522;-81
2021/07/12 09:07:32;;;;;;;5.63;4.22;;;;;;;25.88;58.23;101278.28;4959831;28;20049;-82
2021/07/12 09:10:09;;;;;;;9.20;4.82;;;;;;;25.94;59.52;101285.41;4959027;28;20038;-82
2021/07/12 09:12:45;;;;;;;7.40;5.03;;;;;;;26.05;58.13;101282.94;4963141;28;20038;-83
2021/07/12 09:15:14;;;;;;;7.85;4.63;;;;;;;26.17;59.06;101289.91;5011190;28;20349;-79
2021/07/12 09:17:43;;;;;;;9.43;4.90;;;;;;;26.25;58.36;101277.16;4944058;28;20129;-80
2021/07/12 09:20:12;;;;;;;5.55;4.30;;;;;;;26.40;59.97;101288.22;4956546;28;20030;-81
2021/07/12 09:22:41;;;;;;;8.63;4.80;;;;;;;26.50;58.26;101277.66;4968383;28;20160;-81
2021/07/12 09:25:11;;;;;;;5.53;4.47;;;;;;;26.38;58.49;101279.56;4975600;28;20038;-82
2021/07/12 09:27:39;;;;;;;6.88;4.40;;;;;;;26.25;57.75;101279.84;4991958;28;20420;-82
2021/07/12 09:30:09;;;;;;;4.95;4.13;;;;;;;26.14;57.45;101289.56;5001988;28;20026;-81
2021/07/12 09:32:37;;;;;;;9.10;4.57;;;;;;;26.14;56.30;101265.38;4989274;28;20042;-83
2021/07/12 09:35:07;;;;;;;8.48;4.20;;;;;;;26.20;58.61;101272.47;4958053;28;20807;-84
2021/07/12 09:37:35;;;;;;;7.38;4.55;;;;;;;26.03;59.00;101275.94;4996938;28;20030;-81
2021/07/12 09:40:01;;;;;;;5.53;4.10;;;;;;;25.78;59.52;101267.28;4961956;28;20497;-82
2021/07/12 09:42:31;;;;;;;9.15;4.55;;;;;;;25.35;61.17;101268.44;4964181;28;20121;-82
2021/07/12 09:45:05;;;;;;;7.72;4.95;;;;;;;25.53;62.14;101265.66;4950256;28;20043;-82
2021/07/12 09:47:33;;;;;;;4.63;4.07;;;;;;;26.06;58.10;101258.50;4992546;28;20034;-81
2021/07/12 09:50:06;;;;;;;6.55;3.65;;;;;;;26.42;58.11;101253.84;4966060;28;20041;-80
2021/07/12 09:52:52;;;;;;;6.32;4.70;;;;;;;26.57;56.58;101256.00;4959871;28;20038;-81
2021/07/12 09:55:23;;;;;;;5.05;3.88;;;;;;;26.66;57.19;101259.16;4959185;28;20041;-82
2021/07/12 09:58:15;;;;;;;5.05;3.80;;;;;;;27.03;55.90;101258.69;4967910;28;20061;-81
2021/07/12 10:00:47;;;;;;;4.22;3.83;;;;;;;27.13;53.53;101265.06;5003322;28;20500;-82
2021/07/12 10:03:15;;;;;;;8.40;3.63;;;;;;;26.97;54.13;101263.19;4975695;28;20026;-79
2021/07/12 10:05:54;;;;;;;5.30;4.10;;;;;;;27.05;55.49;101257.41;4962070;28;20125;-81
2021/07/12 10:08:20;;;;;;;3.85;3.55;;;;;;;27.28;57.13;101251.06;4954842;28;20066;-79
2021/07/12 10:10:46;;;;;;;4.95;3.88;;;;;;;27.51;56.14;101241.16;4995918;28;20072;-80
2021/07/12 10:13:12;;;;;;;14.02;4.40;;;;;;;27.79;55.82;101247.47;4957601;28;20125;-82
2021/07/12 10:15:38;;;;;;;5.65;3.90;;;;;;;27.90;56.75;101242.00;4960117;28;20084;-81
2021/07/12 10:18:05;;;;;;;4.22;3.83;;;;;;;28.16;54.14;101236.88;4990509;28;20027;-81
2021/07/12 10:20:33;;;;;;;5.28;3.72;;;;;;;28.14;52.43;101229.06;4957226;28;20395;-79
2021/07/12 10:23:01;;;;;;;4.65;3.83;;;;;;;28.32;52.80;101233.28;4943425;28;20034;-82
2021/07/12 10:25:29;;;;;;;8.85;4.35;;;;;;;27.96;54.29;101230.19;4959719;28;20100;-81
2021/07/12 10:27:57;;;;;;;4.88;3.75;;;;;;;27.90;52.70;101222.31;4955227;28;20030;-78
2021/07/12 10:30:27;;;;;;;9.07;4.13;;;;;;;28.06;53.34;101223.31;4955608;28;20034;-79
2021/07/12 10:32:55;;;;;;;8.20;4.00;;;;;;;28.19;51.72;101222.09;4979286;28;20038;-79
2021/07/12 10:35:46;;;;;;;4.80;3.47;;;;;;;28.08;52.91;101211.19;4975532;28;20185;-80
2021/07/12 10:38:42;;;;;;;4.60;4.15;;;;;;;27.70;53.45;101214.75;4955064;28;20038;-80
2021/07/12 10:41:14;;;;;;;8.73;4.43;;;;;;;27.29;56.72;101212.28;4990392;28;20034;-81
2021/07/12 10:43:44;;;;;;;4.32;3.80;;;;;;;27.00;54.21;101216.94;4959305;28;20077;-79
2021/07/12 10:46:31;;;;;;;5.35;3.80;;;;;;;26.82;55.51;101219.88;4956140;28;20038;-79
2021/07/12 10:49:05;;;;;;;7.85;4.07;;;;;;;26.44;56.50;101206.00;4991246;28;20535;-78
2021/07/12 10:51:37;;;;;;;4.85;3.72;;;;;;;26.34;57.60;101203.13;4975046;28;20301;-79
2021/07/12 10:54:14;;;;;;;8.00;3.70;;;;;;;26.84;57.69;101197.03;4995041;28;20830;-80
2021/07/12 10:56:56;;;;;;;4.35;3.58;;;;;;;27.68;53.81;101188.03;4994841;28;20066;-80
2021/07/12 10:59:31;;;;;;;3.78;3.42;;;;;;;27.86;50.86;101194.19;5029610;28;20065;-79
2021/07/12 11:01:58;;;;;;;4.32;3.95;;;;;;;27.77;53.76;101186.53;5013852;28;20034;-77
2021/07/12 11:04:34;;;;;;;8.60;3.75;;;;;;;28.26;52.32;101193.88;5020447;28;20105;-80
2021/07/12 11:07:21;;;;;;;4.28;3.13;;;;;;;28.35;49.93;101191.53;4983026;28;20165;-84
2021/07/12 11:10:02;;;;;;;3.80;3.50;;;;;;;28.05;50.16;101182.06;4980441;28;21352;-79
2021/07/12 11:12:37;;;;;;;3.63;3.13;;;;;;;27.93;51.05;101179.50;4990125;28;20053;-81
2021/07/12 11:15:24;;;;;;;3.58;2.85;;;;;;;27.21;52.25;101177.69;5003194;28;20029;-79
2021/07/12 11:17:53;;;;;;;4.68;3.00;;;;;;;27.28;50.85;101182.94;4973619;28;20042;-83
2021/07/12 11:20:48;;;;;;;3.50;3.20;;;;;;;27.54;51.22;101163.34;4965716;28;20034;-79
2021/07/12 11:23:44;;;;;;;5.13;3.10;;;;;;;27.85;50.28;101168.31;4902519;28;20040;-79
2021/07/12 11:26:19;;;;;;;2.88;2.67;;;;;;;28.11;47.75;101164.03;4990434;28;20559;-80